sensor_id;sensor_type;location;lat;lon;timestamp;P1;durP1;ratioP1;P2;durP2;ratioP2
11431;SDS011;5772;50.940;6.782;2023-05-07T00:00:00;32.77;;;31.17;;
11431;SDS011;5772;50.940;6.782;2023-05-07T00:02:26;33.37;;;31.63;;
11431;SDS011;5772;50.940;6.782;2023-05-07T00:04:51;31.43;;;29.80;;
11431;SDS011;5772;50.940;6.782;2023-05-07T00:07:17;29.93;;;28.33;;
11431;SDS011;5772;50.940;6.782;2023-05-07T00:09:42;34.90;;;33.07;;
11431;SDS011;5772;50.940;6.782;2023-05-07T00:12:07;32.70;;;31.07;;
11431;SDS011;5772;50.940;6.782;2023-05-07T00:14:33;32.03;;;30.30;;
11431;SDS011;5772;50.940;6.782;2023-05-07T00:16:59;29.40;;;27.97;;
11431;SDS011;5772;50.940;6.782;2023-05-07T00:19:25;29.47;;;28.07;;
11431;SDS011;5772;50.940;6.782;2023-05-07T00:21:50;31.07;;;29.57;;
11431;SDS011;5772;50.940;6.782;2023-05-07T00:24:15;29.37;;;27.77;;
11431;SDS011;5772;50.940;6.782;2023-05-07T00:26:41;32.00;;;30.07;;
11431;SDS011;5772;50.940;6.782;2023-05-07T00:29:06;29.37;;;27.93;;
11431;SDS011;5772;50.940;6.782;2023-05-07T00:31:32;33.40;;;31.43;;
11431;SDS011;5772;50.940;6.782;2023-05-07T00:33:58;33.30;;;31.50;;
11431;SDS011;5772;50.940;6.782;2023-05-07T00:36:24;32.20;;;30.70;;
11431;SDS011;5772;50.940;6.782;2023-05-07T00:38:49;35.47;;;33.77;;
11431;SDS011;5772;50.940;6.782;2023-05-07T00:41:14;32.50;;;30.70;;
11431;SDS011;5772;50.940;6.782;2023-05-07T00:43:40;31.60;;;30.20;;
11431;SDS011;5772;50.940;6.782;2023-05-07T00:46:05;32.87;;;31.20;;
11431;SDS011;5772;50.940;6.782;2023-05-07T00:48:30;33.27;;;31.63;;
11431;SDS011;5772;50.940;6.782;2023-05-07T00:50:58;31.93;;;30.33;;
11431;SDS011;5772;50.940;6.782;2023-05-07T00:53:23;31.13;;;29.63;;
11431;SDS011;5772;50.940;6.782;2023-05-07T00:55:49;30.67;;;28.70;;
11431;SDS011;5772;50.940;6.782;2023-05-07T00:58:14;28.93;;;27.53;;
11431;SDS011;5772;50.940;6.782;2023-05-07T01:00:40;30.07;;;28.60;;
11431;SDS011;5772;50.940;6.782;2023-05-07T01:03:05;30.70;;;29.20;;
11431;SDS011;5772;50.940;6.782;2023-05-07T01:05:30;32.73;;;31.10;;
11431;SDS011;5772;50.940;6.782;2023-05-07T01:07:57;33.87;;;32.17;;
11431;SDS011;5772;50.940;6.782;2023-05-07T01:10:23;33.30;;;31.57;;
11431;SDS011;5772;50.940;6.782;2023-05-07T01:12:49;32.97;;;31.23;;
11431;SDS011;5772;50.940;6.782;2023-05-07T01:15:15;33.13;;;31.53;;
11431;SDS011;5772;50.940;6.782;2023-05-07T01:17:41;33.37;;;31.73;;
11431;SDS011;5772;50.940;6.782;2023-05-07T01:20:07;32.70;;;31.07;;
11431;SDS011;5772;50.940;6.782;2023-05-07T01:22:35;31.90;;;30.37;;
11431;SDS011;5772;50.940;6.782;2023-05-07T01:25:01;33.93;;;32.37;;
11431;SDS011;5772;50.940;6.782;2023-05-07T01:27:27;32.53;;;30.97;;
11431;SDS011;5772;50.940;6.782;2023-05-07T01:29:52;33.57;;;31.90;;
11431;SDS011;5772;50.940;6.782;2023-05-07T01:32:18;33.60;;;32.00;;
11431;SDS011;5772;50.940;6.782;2023-05-07T01:34:46;31.47;;;29.97;;
11431;SDS011;5772;50.940;6.782;2023-05-07T01:37:13;33.03;;;31.13;;
11431;SDS011;5772;50.940;6.782;2023-05-07T01:39:42;30.40;;;28.80;;
11431;SDS011;5772;50.940;6.782;2023-05-07T01:42:08;29.77;;;28.37;;
11431;SDS011;5772;50.940;6.782;2023-05-07T01:44:33;30.47;;;28.90;;
11431;SDS011;5772;50.940;6.782;2023-05-07T01:46:58;31.23;;;29.53;;
11431;SDS011;5772;50.940;6.782;2023-05-07T01:49:24;32.40;;;30.90;;
11431;SDS011;5772;50.940;6.782;2023-05-07T01:51:49;32.13;;;30.43;;
11431;SDS011;5772;50.940;6.782;2023-05-07T01:54:15;29.77;;;28.20;;
11431;SDS011;5772;50.940;6.782;2023-05-07T01:56:42;30.30;;;28.70;;
11431;SDS011;5772;50.940;6.782;2023-05-07T01:59:07;31.53;;;29.93;;
11431;SDS011;5772;50.940;6.782;2023-05-07T02:01:32;32.60;;;30.80;;
11431;SDS011;5772;50.940;6.782;2023-05-07T02:03:58;30.17;;;28.67;;
11431;SDS011;5772;50.940;6.782;2023-05-07T02:06:23;31.73;;;30.03;;
11431;SDS011;5772;50.940;6.782;2023-05-07T02:08:48;29.97;;;28.33;;
11431;SDS011;5772;50.940;6.782;2023-05-07T02:11:14;30.33;;;28.67;;
11431;SDS011;5772;50.940;6.782;2023-05-07T02:13:40;29.07;;;27.50;;
11431;SDS011;5772;50.940;6.782;2023-05-07T02:16:06;29.73;;;28.13;;
11431;SDS011;5772;50.940;6.782;2023-05-07T02:18:31;31.10;;;29.07;;
11431;SDS011;5772;50.940;6.782;2023-05-07T02:20:57;32.20;;;30.37;;
11431;SDS011;5772;50.940;6.782;2023-05-07T02:23:22;30.73;;;28.97;;
11431;SDS011;5772;50.940;6.782;2023-05-07T02:25:48;31.77;;;29.93;;
11431;SDS011;5772;50.940;6.782;2023-05-07T02:28:13;31.73;;;30.03;;
11431;SDS011;5772;50.940;6.782;2023-05-07T02:30:40;30.73;;;28.87;;
11431;SDS011;5772;50.940;6.782;2023-05-07T02:33:05;27.20;;;25.53;;
11431;SDS011;5772;50.940;6.782;2023-05-07T02:35:30;28.80;;;27.27;;
11431;SDS011;5772;50.940;6.782;2023-05-07T02:37:56;29.67;;;27.77;;
11431;SDS011;5772;50.940;6.782;2023-05-07T02:40:21;29.33;;;27.70;;
11431;SDS011;5772;50.940;6.782;2023-05-07T02:42:47;29.13;;;27.23;;
11431;SDS011;5772;50.940;6.782;2023-05-07T02:45:12;27.63;;;26.23;;
11431;SDS011;5772;50.940;6.782;2023-05-07T02:47:39;28.03;;;26.60;;
11431;SDS011;5772;50.940;6.782;2023-05-07T02:50:04;28.00;;;26.57;;
11431;SDS011;5772;50.940;6.782;2023-05-07T02:52:31;28.70;;;27.20;;
11431;SDS011;5772;50.940;6.782;2023-05-07T02:54:56;29.00;;;26.97;;
11431;SDS011;5772;50.940;6.782;2023-05-07T02:57:21;28.93;;;27.23;;
11431;SDS011;5772;50.940;6.782;2023-05-07T02:59:47;29.03;;;27.13;;
11431;SDS011;5772;50.940;6.782;2023-05-07T03:02:12;31.10;;;29.40;;
11431;SDS011;5772;50.940;6.782;2023-05-07T03:04:39;32.37;;;30.67;;
11431;SDS011;5772;50.940;6.782;2023-05-07T03:07:04;31.70;;;30.00;;
11431;SDS011;5772;50.940;6.782;2023-05-07T03:09:30;31.00;;;29.33;;
11431;SDS011;5772;50.940;6.782;2023-05-07T03:11:55;31.23;;;29.73;;
11431;SDS011;5772;50.940;6.782;2023-05-07T03:14:21;29.57;;;28.00;;
11431;SDS011;5772;50.940;6.782;2023-05-07T03:16:46;31.80;;;30.07;;
11431;SDS011;5772;50.940;6.782;2023-05-07T03:19:12;31.03;;;29.53;;
11431;SDS011;5772;50.940;6.782;2023-05-07T03:21:38;30.20;;;28.67;;
11431;SDS011;5772;50.940;6.782;2023-05-07T03:24:04;31.13;;;29.63;;
11431;SDS011;5772;50.940;6.782;2023-05-07T03:26:30;29.70;;;28.00;;
11431;SDS011;5772;50.940;6.782;2023-05-07T03:28:55;27.47;;;26.07;;
11431;SDS011;5772;50.940;6.782;2023-05-07T03:31:21;26.50;;;25.03;;
11431;SDS011;5772;50.940;6.782;2023-05-07T03:33:50;27.97;;;26.57;;
11431;SDS011;5772;50.940;6.782;2023-05-07T03:36:16;26.93;;;25.40;;
11431;SDS011;5772;50.940;6.782;2023-05-07T03:38:42;26.63;;;25.13;;
11431;SDS011;5772;50.940;6.782;2023-05-07T03:41:08;27.37;;;25.90;;
11431;SDS011;5772;50.940;6.782;2023-05-07T03:43:33;26.47;;;25.17;;
11431;SDS011;5772;50.940;6.782;2023-05-07T03:45:58;26.40;;;25.10;;
11431;SDS011;5772;50.940;6.782;2023-05-07T03:48:24;27.53;;;26.13;;
11431;SDS011;5772;50.940;6.782;2023-05-07T03:50:49;28.80;;;27.17;;
11431;SDS011;5772;50.940;6.782;2023-05-07T03:53:14;28.23;;;26.73;;
11431;SDS011;5772;50.940;6.782;2023-05-07T03:55:41;27.97;;;26.47;;
11431;SDS011;5772;50.940;6.782;2023-05-07T03:58:06;28.33;;;26.77;;
11431;SDS011;5772;50.940;6.782;2023-05-07T04:00:32;27.13;;;25.77;;
11431;SDS011;5772;50.940;6.782;2023-05-07T04:02:57;28.93;;;27.40;;
11431;SDS011;5772;50.940;6.782;2023-05-07T04:05:23;28.77;;;27.20;;
11431;SDS011;5772;50.940;6.782;2023-05-07T04:07:48;29.23;;;27.60;;
11431;SDS011;5772;50.940;6.782;2023-05-07T04:10:14;27.43;;;26.03;;
11431;SDS011;5772;50.940;6.782;2023-05-07T04:12:40;27.40;;;26.00;;
11431;SDS011;5772;50.940;6.782;2023-05-07T04:15:06;26.90;;;25.50;;
11431;SDS011;5772;50.940;6.782;2023-05-07T04:17:32;28.90;;;27.40;;
11431;SDS011;5772;50.940;6.782;2023-05-07T04:19:57;30.20;;;28.57;;
11431;SDS011;5772;50.940;6.782;2023-05-07T04:22:23;30.17;;;28.67;;
11431;SDS011;5772;50.940;6.782;2023-05-07T04:24:48;29.03;;;27.60;;
11431;SDS011;5772;50.940;6.782;2023-05-07T04:27:13;29.57;;;28.07;;
11431;SDS011;5772;50.940;6.782;2023-05-07T04:29:40;32.63;;;30.93;;
11431;SDS011;5772;50.940;6.782;2023-05-07T04:32:05;30.97;;;29.27;;
11431;SDS011;5772;50.940;6.782;2023-05-07T04:34:31;31.83;;;30.00;;
11431;SDS011;5772;50.940;6.782;2023-05-07T04:36:58;29.97;;;28.40;;
11431;SDS011;5772;50.940;6.782;2023-05-07T04:39:23;28.77;;;27.27;;
11431;SDS011;5772;50.940;6.782;2023-05-07T04:41:49;29.40;;;27.90;;
11431;SDS011;5772;50.940;6.782;2023-05-07T04:44:14;29.77;;;28.33;;
11431;SDS011;5772;50.940;6.782;2023-05-07T04:46:41;26.20;;;25.00;;
11431;SDS011;5772;50.940;6.782;2023-05-07T04:49:06;26.53;;;25.13;;
11431;SDS011;5772;50.940;6.782;2023-05-07T04:51:32;25.70;;;24.37;;
11431;SDS011;5772;50.940;6.782;2023-05-07T04:53:57;27.77;;;26.10;;
11431;SDS011;5772;50.940;6.782;2023-05-07T04:56:22;28.93;;;27.63;;
11431;SDS011;5772;50.940;6.782;2023-05-07T04:58:48;27.27;;;26.00;;
11431;SDS011;5772;50.940;6.782;2023-05-07T05:01:13;25.93;;;24.67;;
11431;SDS011;5772;50.940;6.782;2023-05-07T05:03:40;27.97;;;26.47;;
11431;SDS011;5772;50.940;6.782;2023-05-07T05:06:05;26.40;;;25.00;;
11431;SDS011;5772;50.940;6.782;2023-05-07T05:08:30;26.07;;;24.77;;
11431;SDS011;5772;50.940;6.782;2023-05-07T05:10:56;28.30;;;27.00;;
11431;SDS011;5772;50.940;6.782;2023-05-07T05:13:21;25.33;;;24.10;;
11431;SDS011;5772;50.940;6.782;2023-05-07T05:15:47;24.30;;;23.13;;
11431;SDS011;5772;50.940;6.782;2023-05-07T05:18:12;25.23;;;23.97;;
11431;SDS011;5772;50.940;6.782;2023-05-07T05:20:39;28.40;;;27.00;;
11431;SDS011;5772;50.940;6.782;2023-05-07T05:23:04;30.03;;;28.63;;
11431;SDS011;5772;50.940;6.782;2023-05-07T05:25:29;30.33;;;29.03;;
11431;SDS011;5772;50.940;6.782;2023-05-07T05:27:55;29.80;;;28.40;;
11431;SDS011;5772;50.940;6.782;2023-05-07T05:30:20;32.07;;;30.60;;
11431;SDS011;5772;50.940;6.782;2023-05-07T05:32:45;30.17;;;28.40;;
11431;SDS011;5772;50.940;6.782;2023-05-07T05:35:11;27.77;;;26.33;;
11431;SDS011;5772;50.940;6.782;2023-05-07T05:37:37;24.93;;;23.83;;
11431;SDS011;5772;50.940;6.782;2023-05-07T05:40:03;25.70;;;24.47;;
11431;SDS011;5772;50.940;6.782;2023-05-07T05:42:29;26.07;;;24.70;;
11431;SDS011;5772;50.940;6.782;2023-05-07T05:44:54;25.23;;;24.17;;
11431;SDS011;5772;50.940;6.782;2023-05-07T05:47:20;26.10;;;24.90;;
11431;SDS011;5772;50.940;6.782;2023-05-07T05:49:45;26.20;;;24.93;;
11431;SDS011;5772;50.940;6.782;2023-05-07T05:52:11;26.13;;;24.93;;
11431;SDS011;5772;50.940;6.782;2023-05-07T05:54:38;26.97;;;25.10;;
11431;SDS011;5772;50.940;6.782;2023-05-07T05:57:04;25.20;;;23.97;;
11431;SDS011;5772;50.940;6.782;2023-05-07T05:59:29;25.57;;;24.47;;
11431;SDS011;5772;50.940;6.782;2023-05-07T06:01:54;28.40;;;27.20;;
11431;SDS011;5772;50.940;6.782;2023-05-07T06:04:20;29.20;;;27.80;;
11431;SDS011;5772;50.940;6.782;2023-05-07T06:06:45;26.30;;;25.13;;
11431;SDS011;5772;50.940;6.782;2023-05-07T06:09:10;29.33;;;27.87;;
11431;SDS011;5772;50.940;6.782;2023-05-07T06:11:37;26.93;;;25.70;;
11431;SDS011;5772;50.940;6.782;2023-05-07T06:14:02;25.03;;;23.93;;
11431;SDS011;5772;50.940;6.782;2023-05-07T06:16:28;24.07;;;22.97;;
11431;SDS011;5772;50.940;6.782;2023-05-07T06:18:53;23.13;;;22.13;;
11431;SDS011;5772;50.940;6.782;2023-05-07T06:21:19;24.23;;;23.03;;
11431;SDS011;5772;50.940;6.782;2023-05-07T06:23:44;22.60;;;21.60;;
11431;SDS011;5772;50.940;6.782;2023-05-07T06:26:09;23.23;;;22.13;;
11431;SDS011;5772;50.940;6.782;2023-05-07T06:28:36;23.83;;;22.77;;
11431;SDS011;5772;50.940;6.782;2023-05-07T06:31:12;22.40;;;21.40;;
11431;SDS011;5772;50.940;6.782;2023-05-07T06:33:38;23.77;;;22.43;;
11431;SDS011;5772;50.940;6.782;2023-05-07T06:36:04;24.50;;;23.40;;
11431;SDS011;5772;50.940;6.782;2023-05-07T06:38:30;23.73;;;22.40;;
11431;SDS011;5772;50.940;6.782;2023-05-07T06:40:55;24.10;;;23.00;;
11431;SDS011;5772;50.940;6.782;2023-05-07T06:43:20;25.93;;;24.83;;
11431;SDS011;5772;50.940;6.782;2023-05-07T06:45:47;24.40;;;23.30;;
11431;SDS011;5772;50.940;6.782;2023-05-07T06:48:12;22.77;;;21.53;;
11431;SDS011;5772;50.940;6.782;2023-05-07T06:50:38;22.43;;;21.20;;
11431;SDS011;5772;50.940;6.782;2023-05-07T06:53:03;21.90;;;20.90;;
11431;SDS011;5772;50.940;6.782;2023-05-07T06:55:29;22.80;;;21.77;;
11431;SDS011;5772;50.940;6.782;2023-05-07T06:57:54;23.37;;;22.37;;
11431;SDS011;5772;50.940;6.782;2023-05-07T07:00:19;20.10;;;19.20;;
11431;SDS011;5772;50.940;6.782;2023-05-07T07:02:46;20.83;;;19.83;;
11431;SDS011;5772;50.940;6.782;2023-05-07T07:05:11;19.23;;;18.33;;
11431;SDS011;5772;50.940;6.782;2023-05-07T07:07:37;21.27;;;20.27;;
11431;SDS011;5772;50.940;6.782;2023-05-07T07:10:02;21.93;;;20.97;;
11431;SDS011;5772;50.940;6.782;2023-05-07T07:12:28;20.03;;;19.23;;
11431;SDS011;5772;50.940;6.782;2023-05-07T07:14:53;21.70;;;20.80;;
11431;SDS011;5772;50.940;6.782;2023-05-07T07:17:19;19.87;;;19.07;;
11431;SDS011;5772;50.940;6.782;2023-05-07T07:19:45;19.53;;;18.63;;
11431;SDS011;5772;50.940;6.782;2023-05-07T07:22:11;17.47;;;16.77;;
11431;SDS011;5772;50.940;6.782;2023-05-07T07:24:36;18.30;;;17.50;;
11431;SDS011;5772;50.940;6.782;2023-05-07T07:27:01;18.97;;;18.10;;
11431;SDS011;5772;50.940;6.782;2023-05-07T07:29:27;19.57;;;18.67;;
11431;SDS011;5772;50.940;6.782;2023-05-07T07:31:52;21.40;;;20.47;;
11431;SDS011;5772;50.940;6.782;2023-05-07T07:34:18;20.33;;;19.23;;
11431;SDS011;5772;50.940;6.782;2023-05-07T07:36:44;19.42;;;18.55;;
11431;SDS011;5772;50.940;6.782;2023-05-07T07:39:10;19.95;;;19.05;;
11431;SDS011;5772;50.940;6.782;2023-05-07T07:41:35;19.30;;;18.50;;
11431;SDS011;5772;50.940;6.782;2023-05-07T07:44:00;18.17;;;17.38;;
11431;SDS011;5772;50.940;6.782;2023-05-07T07:46:26;19.50;;;18.65;;
11431;SDS011;5772;50.940;6.782;2023-05-07T07:48:51;18.00;;;17.13;;
11431;SDS011;5772;50.940;6.782;2023-05-07T07:51:16;17.65;;;16.88;;
11431;SDS011;5772;50.940;6.782;2023-05-07T07:53:43;17.27;;;16.48;;
11431;SDS011;5772;50.940;6.782;2023-05-07T07:56:08;17.27;;;16.58;;
11431;SDS011;5772;50.940;6.782;2023-05-07T07:58:34;18.08;;;17.27;;
11431;SDS011;5772;50.940;6.782;2023-05-07T08:00:59;17.30;;;16.40;;
11431;SDS011;5772;50.940;6.782;2023-05-07T08:03:24;17.90;;;17.00;;
11431;SDS011;5772;50.940;6.782;2023-05-07T08:05:50;18.00;;;17.08;;
11431;SDS011;5772;50.940;6.782;2023-05-07T08:08:15;18.52;;;17.52;;
11431;SDS011;5772;50.940;6.782;2023-05-07T08:10:42;19.08;;;18.00;;
11431;SDS011;5772;50.940;6.782;2023-05-07T08:13:07;59.78;;;40.25;;
11431;SDS011;5772;50.940;6.782;2023-05-07T08:15:33;65.60;;;41.80;;
11431;SDS011;5772;50.940;6.782;2023-05-07T08:17:58;17.80;;;16.90;;
11431;SDS011;5772;50.940;6.782;2023-05-07T08:20:23;17.38;;;16.38;;
11431;SDS011;5772;50.940;6.782;2023-05-07T08:22:49;17.73;;;16.92;;
11431;SDS011;5772;50.940;6.782;2023-05-07T08:25:14;18.38;;;17.45;;
11431;SDS011;5772;50.940;6.782;2023-05-07T08:27:41;20.02;;;19.13;;
11431;SDS011;5772;50.940;6.782;2023-05-07T08:30:07;19.45;;;18.55;;
11431;SDS011;5772;50.940;6.782;2023-05-07T08:32:33;18.00;;;17.20;;
11431;SDS011;5772;50.940;6.782;2023-05-07T08:34:58;17.23;;;16.48;;
11431;SDS011;5772;50.940;6.782;2023-05-07T08:37:24;21.15;;;20.02;;
11431;SDS011;5772;50.940;6.782;2023-05-07T08:39:49;19.58;;;18.67;;
11431;SDS011;5772;50.940;6.782;2023-05-07T08:42:15;18.23;;;17.33;;
11431;SDS011;5772;50.940;6.782;2023-05-07T08:44:43;17.23;;;16.42;;
11431;SDS011;5772;50.940;6.782;2023-05-07T08:47:10;17.58;;;16.77;;
11431;SDS011;5772;50.940;6.782;2023-05-07T08:49:35;19.80;;;18.98;;
11431;SDS011;5772;50.940;6.782;2023-05-07T08:52:01;19.65;;;18.65;;
11431;SDS011;5772;50.940;6.782;2023-05-07T08:54:26;19.63;;;18.75;;
11431;SDS011;5772;50.940;6.782;2023-05-07T08:56:52;19.45;;;18.50;;
11431;SDS011;5772;50.940;6.782;2023-05-07T08:59:18;18.80;;;18.00;;
11431;SDS011;5772;50.940;6.782;2023-05-07T09:01:44;18.50;;;17.70;;
11431;SDS011;5772;50.940;6.782;2023-05-07T09:04:10;19.25;;;18.45;;
11431;SDS011;5772;50.940;6.782;2023-05-07T09:06:35;17.77;;;16.95;;
11431;SDS011;5772;50.940;6.782;2023-05-07T09:09:00;19.77;;;18.83;;
11431;SDS011;5772;50.940;6.782;2023-05-07T09:11:26;20.85;;;19.60;;
11431;SDS011;5772;50.940;6.782;2023-05-07T09:13:53;19.75;;;18.95;;
11431;SDS011;5772;50.940;6.782;2023-05-07T09:16:19;20.08;;;19.17;;
11431;SDS011;5772;50.940;6.782;2023-05-07T09:18:48;19.90;;;19.10;;
11431;SDS011;5772;50.940;6.782;2023-05-07T09:21:16;19.80;;;18.92;;
11431;SDS011;5772;50.940;6.782;2023-05-07T09:23:42;22.75;;;21.65;;
11431;SDS011;5772;50.940;6.782;2023-05-07T09:26:07;17.65;;;16.85;;
11431;SDS011;5772;50.940;6.782;2023-05-07T09:28:33;15.73;;;15.02;;
11431;SDS011;5772;50.940;6.782;2023-05-07T09:30:58;15.15;;;14.50;;
11431;SDS011;5772;50.940;6.782;2023-05-07T09:33:26;17.27;;;16.52;;
11431;SDS011;5772;50.940;6.782;2023-05-07T09:35:53;16.58;;;15.77;;
11431;SDS011;5772;50.940;6.782;2023-05-07T09:38:19;14.32;;;13.63;;
11431;SDS011;5772;50.940;6.782;2023-05-07T09:40:45;13.82;;;13.02;;
11431;SDS011;5772;50.940;6.782;2023-05-07T09:43:10;14.10;;;13.50;;
11431;SDS011;5772;50.940;6.782;2023-05-07T09:45:36;14.38;;;13.77;;
11431;SDS011;5772;50.940;6.782;2023-05-07T09:48:01;17.15;;;16.45;;
11431;SDS011;5772;50.940;6.782;2023-05-07T09:50:32;15.05;;;14.45;;
11431;SDS011;5772;50.940;6.782;2023-05-07T09:53:02;14.70;;;14.00;;
11431;SDS011;5772;50.940;6.782;2023-05-07T09:55:28;15.75;;;15.00;;
11431;SDS011;5772;50.940;6.782;2023-05-07T09:57:53;15.38;;;14.68;;
11431;SDS011;5772;50.940;6.782;2023-05-07T10:00:19;14.48;;;13.88;;
11431;SDS011;5772;50.940;6.782;2023-05-07T10:02:45;15.50;;;14.80;;
11431;SDS011;5772;50.940;6.782;2023-05-07T10:05:12;15.88;;;15.23;;
11431;SDS011;5772;50.940;6.782;2023-05-07T10:07:37;15.30;;;14.70;;
11431;SDS011;5772;50.940;6.782;2023-05-07T10:10:05;15.98;;;15.27;;
11431;SDS011;5772;50.940;6.782;2023-05-07T10:12:32;15.77;;;14.98;;
11431;SDS011;5772;50.940;6.782;2023-05-07T10:14:58;14.88;;;14.18;;
11431;SDS011;5772;50.940;6.782;2023-05-07T10:17:24;15.57;;;14.65;;
11431;SDS011;5772;50.940;6.782;2023-05-07T10:19:49;15.48;;;14.88;;
11431;SDS011;5772;50.940;6.782;2023-05-07T10:22:15;15.75;;;15.07;;
11431;SDS011;5772;50.940;6.782;2023-05-07T10:24:41;15.27;;;14.60;;
11431;SDS011;5772;50.940;6.782;2023-05-07T10:27:10;15.02;;;14.32;;
11431;SDS011;5772;50.940;6.782;2023-05-07T10:29:37;14.05;;;13.45;;
11431;SDS011;5772;50.940;6.782;2023-05-07T10:32:17;15.88;;;15.18;;
11431;SDS011;5772;50.940;6.782;2023-05-07T10:34:56;16.10;;;15.40;;
11431;SDS011;5772;50.940;6.782;2023-05-07T10:37:24;14.63;;;14.02;;
11431;SDS011;5772;50.940;6.782;2023-05-07T10:39:50;15.02;;;14.43;;
11431;SDS011;5772;50.940;6.782;2023-05-07T10:42:16;15.60;;;14.93;;
11431;SDS011;5772;50.940;6.782;2023-05-07T10:44:43;14.52;;;13.93;;
11431;SDS011;5772;50.940;6.782;2023-05-07T10:47:09;16.05;;;15.35;;
11431;SDS011;5772;50.940;6.782;2023-05-07T10:49:35;14.15;;;13.55;;
11431;SDS011;5772;50.940;6.782;2023-05-07T10:52:11;14.23;;;13.60;;
11431;SDS011;5772;50.940;6.782;2023-05-07T10:54:37;14.18;;;13.57;;
11431;SDS011;5772;50.940;6.782;2023-05-07T10:59:59;14.48;;;13.88;;
11431;SDS011;5772;50.940;6.782;2023-05-07T11:02:31;14.40;;;13.80;;
11431;SDS011;5772;50.940;6.782;2023-05-07T11:05:33;14.85;;;14.18;;
11431;SDS011;5772;50.940;6.782;2023-05-07T11:07:59;15.63;;;15.00;;
11431;SDS011;5772;50.940;6.782;2023-05-07T11:10:38;14.25;;;13.65;;
11431;SDS011;5772;50.940;6.782;2023-05-07T11:13:12;14.43;;;13.85;;
11431;SDS011;5772;50.940;6.782;2023-05-07T11:15:41;20.75;;;19.25;;
11431;SDS011;5772;50.940;6.782;2023-05-07T11:18:09;21.98;;;20.23;;
11431;SDS011;5772;50.940;6.782;2023-05-07T11:20:45;16.20;;;15.40;;
11431;SDS011;5772;50.940;6.782;2023-05-07T11:26:20;16.05;;;15.32;;
11431;SDS011;5772;50.940;6.782;2023-05-07T11:28:46;17.65;;;16.95;;
11431;SDS011;5772;50.940;6.782;2023-05-07T11:31:12;16.67;;;15.85;;
11431;SDS011;5772;50.940;6.782;2023-05-07T11:33:38;16.40;;;15.70;;
11431;SDS011;5772;50.940;6.782;2023-05-07T11:36:04;17.23;;;16.52;;
11431;SDS011;5772;50.940;6.782;2023-05-07T11:38:30;17.77;;;16.98;;
11431;SDS011;5772;50.940;6.782;2023-05-07T11:40:59;20.83;;;19.38;;
11431;SDS011;5772;50.940;6.782;2023-05-07T11:43:24;19.83;;;18.55;;
11431;SDS011;5772;50.940;6.782;2023-05-07T11:45:50;20.67;;;19.27;;
11431;SDS011;5772;50.940;6.782;2023-05-07T11:48:15;17.95;;;17.15;;
11431;SDS011;5772;50.940;6.782;2023-05-07T11:50:51;16.33;;;15.63;;
11431;SDS011;5772;50.940;6.782;2023-05-07T11:53:17;15.30;;;14.60;;
11431;SDS011;5772;50.940;6.782;2023-05-07T11:55:42;16.25;;;15.55;;
11431;SDS011;5772;50.940;6.782;2023-05-07T11:58:07;19.30;;;18.38;;
11431;SDS011;5772;50.940;6.782;2023-05-07T12:00:35;23.70;;;22.70;;
11431;SDS011;5772;50.940;6.782;2023-05-07T12:03:02;16.58;;;15.85;;
11431;SDS011;5772;50.940;6.782;2023-05-07T12:05:28;14.82;;;14.23;;
11431;SDS011;5772;50.940;6.782;2023-05-07T12:07:57;15.20;;;14.48;;
11431;SDS011;5772;50.940;6.782;2023-05-07T12:10:22;26.77;;;25.70;;
11431;SDS011;5772;50.940;6.782;2023-05-07T12:12:47;15.65;;;14.95;;
11431;SDS011;5772;50.940;6.782;2023-05-07T12:15:15;15.93;;;15.13;;
11431;SDS011;5772;50.940;6.782;2023-05-07T12:17:40;15.82;;;15.13;;
11431;SDS011;5772;50.940;6.782;2023-05-07T12:20:06;123.97;;;67.25;;
11431;SDS011;5772;50.940;6.782;2023-05-07T12:22:32;17.75;;;16.75;;
11431;SDS011;5772;50.940;6.782;2023-05-07T12:24:59;15.25;;;14.65;;
11431;SDS011;5772;50.940;6.782;2023-05-07T12:27:25;19.10;;;18.17;;
11431;SDS011;5772;50.940;6.782;2023-05-07T12:29:51;19.35;;;18.48;;
11431;SDS011;5772;50.940;6.782;2023-05-07T12:32:16;22.45;;;21.35;;
11431;SDS011;5772;50.940;6.782;2023-05-07T12:34:43;20.05;;;19.25;;
11431;SDS011;5772;50.940;6.782;2023-05-07T12:37:09;17.67;;;16.77;;
11431;SDS011;5772;50.940;6.782;2023-05-07T12:39:35;19.73;;;18.92;;
11431;SDS011;5772;50.940;6.782;2023-05-07T12:42:01;18.20;;;17.15;;
11431;SDS011;5772;50.940;6.782;2023-05-07T12:44:29;16.38;;;15.68;;
11431;SDS011;5772;50.940;6.782;2023-05-07T12:46:55;16.35;;;15.65;;
11431;SDS011;5772;50.940;6.782;2023-05-07T12:49:21;19.80;;;18.17;;
11431;SDS011;5772;50.940;6.782;2023-05-07T12:51:46;27.95;;;24.45;;
11431;SDS011;5772;50.940;6.782;2023-05-07T12:54:11;18.75;;;17.75;;
11431;SDS011;5772;50.940;6.782;2023-05-07T12:56:37;18.20;;;17.20;;
11431;SDS011;5772;50.940;6.782;2023-05-07T12:59:04;17.80;;;17.00;;
11431;SDS011;5772;50.940;6.782;2023-05-07T13:01:29;18.60;;;17.75;;
11431;SDS011;5772;50.940;6.782;2023-05-07T13:03:55;21.30;;;20.05;;
11431;SDS011;5772;50.940;6.782;2023-05-07T13:06:20;18.38;;;17.42;;
11431;SDS011;5772;50.940;6.782;2023-05-07T13:08:46;15.50;;;14.77;;
11431;SDS011;5772;50.940;6.782;2023-05-07T13:11:12;16.20;;;15.50;;
11431;SDS011;5772;50.940;6.782;2023-05-07T13:13:38;19.40;;;18.25;;
11431;SDS011;5772;50.940;6.782;2023-05-07T13:16:07;20.90;;;19.77;;
11431;SDS011;5772;50.940;6.782;2023-05-07T13:18:33;18.83;;;17.95;;
11431;SDS011;5772;50.940;6.782;2023-05-07T13:20:59;18.13;;;17.33;;
11431;SDS011;5772;50.940;6.782;2023-05-07T13:23:25;18.95;;;18.15;;
11431;SDS011;5772;50.940;6.782;2023-05-07T13:25:51;19.80;;;18.90;;
11431;SDS011;5772;50.940;6.782;2023-05-07T13:28:16;19.13;;;18.23;;
11431;SDS011;5772;50.940;6.782;2023-05-07T13:30:42;17.42;;;16.63;;
11431;SDS011;5772;50.940;6.782;2023-05-07T13:33:08;19.52;;;18.73;;
11431;SDS011;5772;50.940;6.782;2023-05-07T13:35:34;18.38;;;17.58;;
11431;SDS011;5772;50.940;6.782;2023-05-07T13:37:59;17.20;;;16.40;;
11431;SDS011;5772;50.940;6.782;2023-05-07T13:40:25;18.38;;;17.27;;
11431;SDS011;5772;50.940;6.782;2023-05-07T13:42:50;17.02;;;16.17;;
11431;SDS011;5772;50.940;6.782;2023-05-07T13:45:16;17.83;;;17.02;;
11431;SDS011;5772;50.940;6.782;2023-05-07T13:47:41;17.20;;;16.40;;
11431;SDS011;5772;50.940;6.782;2023-05-07T13:50:09;19.02;;;17.98;;
11431;SDS011;5772;50.940;6.782;2023-05-07T13:52:35;20.05;;;19.13;;
11431;SDS011;5772;50.940;6.782;2023-05-07T13:55:00;19.33;;;18.13;;
11431;SDS011;5772;50.940;6.782;2023-05-07T13:57:25;20.02;;;19.17;;
11431;SDS011;5772;50.940;6.782;2023-05-07T13:59:51;21.98;;;20.55;;
11431;SDS011;5772;50.940;6.782;2023-05-07T14:02:16;22.33;;;21.02;;
11431;SDS011;5772;50.940;6.782;2023-05-07T14:04:41;20.63;;;19.73;;
11431;SDS011;5772;50.940;6.782;2023-05-07T14:07:08;19.58;;;18.67;;
11431;SDS011;5772;50.940;6.782;2023-05-07T14:09:34;24.00;;;22.52;;
11431;SDS011;5772;50.940;6.782;2023-05-07T14:11:59;27.48;;;26.17;;
11431;SDS011;5772;50.940;6.782;2023-05-07T14:14:24;24.63;;;23.45;;
11431;SDS011;5772;50.940;6.782;2023-05-07T14:16:50;23.40;;;22.25;;
11431;SDS011;5772;50.940;6.782;2023-05-07T14:19:15;21.95;;;20.95;;
11431;SDS011;5772;50.940;6.782;2023-05-07T14:21:40;22.98;;;21.88;;
11431;SDS011;5772;50.940;6.782;2023-05-07T14:24:07;20.83;;;19.48;;
11431;SDS011;5772;50.940;6.782;2023-05-07T14:26:33;22.70;;;21.50;;
11431;SDS011;5772;50.940;6.782;2023-05-07T14:28:58;19.90;;;18.92;;
11431;SDS011;5772;50.940;6.782;2023-05-07T14:31:23;20.63;;;19.63;;